Terminal Aerodrome Forecast
Issued by NWS Omaha/Valley, NE

Home | Current Version | Previous Version | Text Only | Print | Product List | Glossary On
Versions: 1 2 3 4 5 6 7 8 9 10 11 12 13 14 15 16 17 18 19 20 21 22 23 24 25 26 27
000
FTUS43 KOAX 281722
TAFOMA
TAF
KOMA 281722Z 2818/2918 16013KT P6SM SCT250
     FM282100 21010KT P6SM BKN250
     FM290000 30010KT P6SM BKN250
     FM290300 33023G33KT P6SM SCT025 BKN050
     FM290600 33025G35KT P6SM OVC025=

USA.gov is the U.S. government's official web portal to all federal, state and local government web resources and services.